KAIZ/AIZ METAR and TAF weather

Enter ICAO airport designator
Station Type Date Time Source
KAIZ METAR 2020/11/28 19:56 UTC NOAA

KAIZ 281956Z AUTO 24005KT 10SM CLR 13/M02 A3020 RMK AO2 SLP230 T01281022


Station Type Date Time Source
KAIZ Decoded METAR 2020/11/28 19:56 UTC NOAA

Kaiser Lake Ozark, Lee C Fine Memorial Airport, MO, United States (KAIZ) 38-06N 092-33W
Nov 28, 2020 - 02:56 PM EST / 2020.11.28 1956 UTC
Wind: from the WSW (240 degrees) at 6 MPH (5 KT):0
Visibility: 10 mile(s):0
Sky conditions: clear
Temperature: 55.0 F (12.8 C)
Dew Point: 28.0 F (-2.2 C)
Relative Humidity: 35%
Pressure (altimeter): 30.2 in. Hg (1022 hPa)
ob: KAIZ 281956Z AUTO 24005KT 10SM CLR 13/M02 A3020 RMK AO2 SLP230 T01281022
cycle: 20

Station Type Date Time Source
KAIZ TAF UTC NOAA

Error!

Example: see airport list